MMZO/ZLO METAR and TAF weather

Enter ICAO airport designator
Station Type Date Time Source
MMZO METAR 2021/07/24 17:42 UTC NOAA

MMZO 241742Z 21010KT 10SM BKN020 BKN100 BKN200 32/27 A2996 RMK 8/131


Station Type Date Time Source
MMZO Decoded METAR 2021/07/24 17:42 UTC NOAA

Manzanillo International , Mexico (MMZO) 19-09N 104-34W
Jul 24, 2021 - 01:42 PM EDT / 2021.07.24 1742 UTC
Wind: from the SSW (210 degrees) at 12 MPH (10 KT):0
Visibility: 10 mile(s):0
Sky conditions: mostly cloudy
Temperature: 89 F (32 C)
Heat index: 105.6 F (40.9 C):1
Dew Point: 80 F (27 C)
Relative Humidity: 74%
Pressure (altimeter): 29.96 in. Hg (1014 hPa)
ob: MMZO 241742Z 21010KT 10SM BKN020 BKN100 BKN200 32/27 A2996 RMK 8/131
cycle: 17

Station Type Date Time Source
MMZO TAF 2021/07/24 18:43 UTC NOAA

TAF MMZO 241637Z 2418/2518 25010KT P6SM SCT020 SCT100 BKN230
FM242200 29015KT P6SM BKN025CB OVC120
TEMPO 2423/2503 4SM TSRA
BECMG 2504/2505 5SM -RA
TEMPO 2504/2508 3SM TSRA
FM251200 00000KT 3SM HZ OVC010
FM251500 29010KT 4SM HZ SCT010 SCT120

Example: see airport list